Time;durP1;ratioP1;P1;durP2;ratioP2;P2;SDS_P1;SDS_P2;PMS_P1;PMS_P2;Temp;Humidity;BMP_temperature;BMP_pressure;BME280_temperature;BME280_humidity;BME280_pressure;Samples;Min_cycle;Max_cycle;Signal;HPM_P1;HPM_P2
2023/05/15 00:01:38;;;;;;;7.10;5.10;;;;;;;10.49;100.00;98793.31;4991703;28;20195;-76
2023/05/15 00:04:07;;;;;;;4.77;4.30;;;;;;;10.57;100.00;98792.78;4992548;28;20226;-76
2023/05/15 00:06:35;;;;;;;8.17;4.97;;;;;;;10.61;100.00;98786.31;4990088;28;20210;-76
2023/05/15 00:09:04;;;;;;;7.57;4.77;;;;;;;10.57;100.00;98790.13;4992584;28;20194;-76
2023/05/15 00:11:32;;;;;;;7.17;5.07;;;;;;;10.44;100.00;98782.22;4989150;28;20222;-76
2023/05/15 00:14:02;;;;;;;8.90;5.43;;;;;;;10.51;100.00;98795.84;4990905;28;20202;-76
2023/05/15 00:16:30;;;;;;;7.63;5.27;;;;;;;10.53;100.00;98788.66;4986870;28;20242;-76
2023/05/15 00:18:58;;;;;;;8.83;5.40;;;;;;;10.53;100.00;98792.16;4995397;28;20201;-76
2023/05/15 00:21:28;;;;;;;8.17;6.17;;;;;;;10.64;100.00;98788.75;4987543;28;20238;-76
2023/05/15 00:23:57;;;;;;;11.07;6.73;;;;;;;10.68;100.00;98799.97;4992152;28;20244;-76
2023/05/15 00:26:26;;;;;;;9.67;8.20;;;;;;;10.79;100.00;98806.22;4986112;28;20214;-76
2023/05/15 00:28:54;;;;;;;15.40;9.73;;;;;;;10.67;100.00;98793.84;4990526;28;20203;-77
2023/05/15 00:31:24;;;;;;;12.37;10.07;;;;;;;10.69;100.00;98786.63;4990803;28;20227;-76
2023/05/15 00:33:52;;;;;;;9.20;6.43;;;;;;;10.61;100.00;98783.66;4986102;28;20192;-76
2023/05/15 00:36:23;;;;;;;6.73;5.50;;;;;;;10.49;100.00;98787.16;4992232;28;20202;-76
2023/05/15 00:38:51;;;;;;;8.83;6.40;;;;;;;10.49;100.00;98777.44;4986609;28;20230;-76
2023/05/15 00:41:27;;;;;;;9.27;7.03;;;;;;;10.38;100.00;98774.69;4991959;28;20192;-76
2023/05/15 00:43:59;;;;;;;9.90;8.53;;;;;;;10.26;100.00;98781.69;4993105;28;20240;-76
2023/05/15 00:46:31;;;;;;;9.67;8.70;;;;;;;10.49;100.00;98781.88;4988077;28;20202;-76
2023/05/15 00:49:01;;;;;;;10.30;8.60;;;;;;;10.33;100.00;98779.47;4958272;28;20198;-76
2023/05/15 00:51:30;;;;;;;8.70;7.50;;;;;;;10.24;100.00;98774.81;4991818;28;20218;-76
2023/05/15 00:53:59;;;;;;;9.20;7.87;;;;;;;10.28;100.00;98773.63;4989349;28;20203;-76
2023/05/15 00:56:30;;;;;;;11.27;7.80;;;;;;;10.25;100.00;98772.03;4990694;28;20282;-76
2023/05/15 00:58:59;;;;;;;22.13;8.37;;;;;;;10.22;100.00;98764.28;4988117;28;20232;-76
2023/05/15 01:01:32;;;;;;;14.80;7.07;;;;;;;10.11;100.00;98764.16;4988527;28;20199;-76
2023/05/15 01:04:06;;;;;;;11.20;7.10;;;;;;;10.12;100.00;98765.84;4988146;28;20251;-76
2023/05/15 01:06:34;;;;;;;11.17;6.60;;;;;;;10.08;100.00;98763.53;4944213;28;20199;-76
2023/05/15 01:09:04;;;;;;;8.40;6.60;;;;;;;10.09;100.00;98765.22;4989852;28;20198;-76
2023/05/15 01:11:38;;;;;;;6.97;6.27;;;;;;;10.07;100.00;98760.03;4986327;28;20218;-76
2023/05/15 01:14:08;;;;;;;10.00;6.33;;;;;;;9.95;100.00;98763.53;4988242;28;20213;-76
2023/05/15 01:16:38;;;;;;;7.87;6.30;;;;;;;9.86;100.00;98762.34;4988598;28;20211;-76
2023/05/15 01:19:06;;;;;;;8.80;6.20;;;;;;;10.06;100.00;98760.16;4994268;28;20202;-76
2023/05/15 01:22:14;;;;;;;8.83;5.87;;;;;;;9.98;100.00;98761.50;4991365;28;20238;-76
2023/05/15 01:25:05;;;;;;;6.07;5.33;;;;;;;10.01;100.00;98761.28;4968260;28;20203;-76
2023/05/15 01:27:39;;;;;;;6.97;5.40;;;;;;;9.97;100.00;98762.47;4993498;28;20213;-76
2023/05/15 01:30:15;;;;;;;12.87;6.53;;;;;;;9.99;100.00;98762.34;4991590;28;20196;-76
2023/05/15 01:32:50;;;;;;;27.20;6.27;;;;;;;9.80;100.00;98761.91;4985948;28;20245;-77
2023/05/15 01:35:23;;;;;;;25.63;5.57;;;;;;;9.84;100.00;98756.28;4987555;28;20253;-76
2023/05/15 01:38:10;;;;;;;12.60;5.30;;;;;;;9.76;100.00;98750.69;4988456;28;20203;-76
2023/05/15 01:40:42;;;;;;;19.80;6.53;;;;;;;9.56;100.00;98752.03;4986133;28;20206;-76
2023/05/15 01:43:17;;;;;;;10.33;5.90;;;;;;;9.63;100.00;98750.66;4989792;28;20202;-76
2023/05/15 01:45:46;;;;;;;5.87;5.20;;;;;;;9.68;100.00;98743.28;4990015;28;20199;-77
2023/05/15 01:48:15;;;;;;;15.03;5.20;;;;;;;9.63;100.00;98744.50;4984078;28;20195;-76
2023/05/15 01:50:45;;;;;;;4.97;4.47;;;;;;;9.64;100.00;98741.75;4973678;28;20223;-76
2023/05/15 01:53:15;;;;;;;5.40;4.90;;;;;;;9.57;100.00;98745.78;4965908;28;20207;-76
2023/05/15 01:55:45;;;;;;;14.73;5.50;;;;;;;9.66;100.00;98746.97;4964770;28;20203;-76
2023/05/15 01:58:16;;;;;;;5.53;5.03;;;;;;;9.60;100.00;98752.66;4966665;28;20231;-76
2023/05/15 02:00:48;;;;;;;5.20;4.70;;;;;;;9.67;100.00;98744.22;4969372;28;20194;-76
2023/05/15 02:03:19;;;;;;;7.47;6.03;;;;;;;9.68;100.00;98753.00;4967246;28;20196;-76
2023/05/15 02:05:48;;;;;;;7.73;5.77;;;;;;;9.55;100.00;98745.00;4960641;28;20689;-77
2023/05/15 02:08:16;;;;;;;6.47;5.63;;;;;;;9.37;100.00;98744.47;4967739;28;20262;-76
2023/05/15 02:10:48;;;;;;;9.23;6.03;;;;;;;9.52;100.00;98739.09;4964488;28;20232;-76
2023/05/15 02:13:18;;;;;;;7.67;5.60;;;;;;;9.56;100.00;98738.81;4971763;28;20207;-76
2023/05/15 02:15:47;;;;;;;6.10;5.43;;;;;;;9.55;100.00;98747.66;4966739;28;20219;-76
2023/05/15 02:18:16;;;;;;;5.80;5.30;;;;;;;9.49;100.00;98736.66;4966824;28;20210;-77
2023/05/15 02:20:44;;;;;;;8.00;5.70;;;;;;;9.51;100.00;98737.41;4970406;28;20677;-76
2023/05/15 02:23:13;;;;;;;6.13;5.53;;;;;;;9.51;100.00;98742.69;4964118;28;20200;-76
2023/05/15 02:25:50;;;;;;;6.30;5.70;;;;;;;9.29;100.00;98753.84;4965175;28;20258;-76
2023/05/15 02:28:28;;;;;;;6.00;5.40;;;;;;;9.11;100.00;98745.31;4960915;28;20259;-76
2023/05/15 02:31:01;;;;;;;6.00;5.10;;;;;;;9.16;100.00;98759.06;4967595;28;20315;-76
2023/05/15 02:33:35;;;;;;;5.47;4.97;;;;;;;9.25;100.00;98753.16;4933003;29;20197;-76
2023/05/15 02:36:07;;;;;;;6.23;5.63;;;;;;;9.17;100.00;98753.69;4926843;29;20280;-76
2023/05/15 02:38:44;;;;;;;6.83;5.83;;;;;;;9.12;100.00;98747.00;4922834;29;20272;-76
2023/05/15 02:41:15;;;;;;;15.13;7.50;;;;;;;9.14;100.00;98745.09;4930985;29;20189;-76
2023/05/15 02:43:50;;;;;;;12.67;6.63;;;;;;;9.16;100.00;98736.13;4928190;29;20201;-76
2023/05/15 02:46:19;;;;;;;16.47;7.00;;;;;;;9.06;100.00;98735.00;4923622;29;20193;-76
2023/05/15 02:48:49;;;;;;;6.93;6.23;;;;;;;8.92;100.00;98748.28;4930673;29;20272;-76
2023/05/15 02:51:17;;;;;;;6.77;5.50;;;;;;;8.98;100.00;98741.78;4943808;28;20286;-76
2023/05/15 02:53:46;;;;;;;5.93;5.10;;;;;;;8.95;100.00;98737.50;4961430;28;20207;-77
2023/05/15 02:56:16;;;;;;;7.87;4.70;;;;;;;9.02;100.00;98741.47;4969208;28;20200;-76
2023/05/15 02:58:47;;;;;;;10.60;4.80;;;;;;;8.81;100.00;98737.56;4968108;28;20655;-76
2023/05/15 03:01:16;;;;;;;8.23;4.73;;;;;;;8.80;100.00;98738.50;4962416;28;20667;-76
2023/05/15 03:03:45;;;;;;;6.33;4.50;;;;;;;8.83;100.00;98736.50;4964601;28;20223;-76
2023/05/15 03:06:13;;;;;;;4.63;4.23;;;;;;;8.68;100.00;98734.81;4963992;28;20207;-76
2023/05/15 03:08:41;;;;;;;4.50;4.10;;;;;;;8.79;100.00;98739.44;4970279;28;20204;-76
2023/05/15 03:11:09;;;;;;;4.60;4.17;;;;;;;8.71;100.00;98737.28;4889816;29;20218;-76
2023/05/15 03:13:38;;;;;;;4.67;4.27;;;;;;;8.73;100.00;98737.19;4887231;29;20222;-76
2023/05/15 03:16:08;;;;;;;3.87;3.57;;;;;;;8.70;100.00;98734.75;4887937;29;20710;-75
2023/05/15 03:18:37;;;;;;;3.90;3.60;;;;;;;8.70;100.00;98730.31;4888161;29;20226;-76
2023/05/15 03:21:08;;;;;;;5.80;3.70;;;;;;;8.69;100.00;98727.78;4898799;29;20218;-76
2023/05/15 03:23:36;;;;;;;4.50;4.10;;;;;;;8.53;100.00;98735.81;4890745;29;20202;-76
2023/05/15 03:26:05;;;;;;;3.60;3.30;;;;;;;8.60;100.00;98731.84;4891784;29;20206;-76
2023/05/15 03:28:35;;;;;;;4.20;3.80;;;;;;;8.58;100.00;98726.63;4907115;28;20283;-76
2023/05/15 03:31:06;;;;;;;4.60;3.67;;;;;;;8.65;100.00;98726.25;4966605;28;20222;-76
2023/05/15 03:33:36;;;;;;;4.50;4.10;;;;;;;8.77;100.00;98728.13;4966761;28;20223;-76
2023/05/15 03:36:06;;;;;;;4.40;4.00;;;;;;;8.71;100.00;98725.88;4966510;28;20225;-76
2023/05/15 03:38:35;;;;;;;4.07;3.77;;;;;;;8.77;100.00;98728.13;4966802;28;20208;-76
2023/05/15 03:41:03;;;;;;;4.10;3.80;;;;;;;8.69;100.00;98733.91;4967255;28;20203;-76
2023/05/15 03:43:35;;;;;;;4.20;3.80;;;;;;;8.79;100.00;98728.91;4973708;28;20214;-76
2023/05/15 03:46:06;;;;;;;4.10;3.70;;;;;;;8.85;100.00;98729.31;4973177;28;20199;-76
2023/05/15 03:48:34;;;;;;;4.07;3.70;;;;;;;8.95;100.00;98724.31;4950362;29;20231;-76
2023/05/15 03:51:04;;;;;;;4.80;4.37;;;;;;;8.99;100.00;98723.19;4946690;29;20205;-77
2023/05/15 03:53:33;;;;;;;8.27;7.37;;;;;;;9.12;100.00;98728.50;4943659;29;20280;-76
2023/05/15 03:56:03;;;;;;;7.47;6.70;;;;;;;9.09;100.00;98724.28;4895102;29;20191;-76
2023/05/15 03:58:31;;;;;;;7.27;6.57;;;;;;;9.05;100.00;98721.91;4890739;29;20211;-76
2023/05/15 04:01:00;;;;;;;6.77;5.93;;;;;;;9.01;100.00;98716.00;4891444;29;20202;-77
2023/05/15 04:03:29;;;;;;;6.10;5.33;;;;;;;9.02;100.00;98720.31;4887234;29;20258;-76
2023/05/15 04:05:57;;;;;;;4.73;4.33;;;;;;;9.05;100.00;98724.56;4895360;29;20198;-76
2023/05/15 04:08:27;;;;;;;7.63;4.80;;;;;;;9.10;100.00;98727.75;4890937;29;20195;-76
2023/05/15 04:10:56;;;;;;;18.67;7.10;;;;;;;8.93;100.00;98723.56;4888565;29;20353;-77
2023/05/15 04:13:24;;;;;;;8.77;6.83;;;;;;;8.89;100.00;98724.72;4899755;29;20328;-76
2023/05/15 04:15:53;;;;;;;5.83;5.27;;;;;;;8.87;100.00;98723.94;4947271;29;20224;-76
2023/05/15 04:18:22;;;;;;;8.40;7.60;;;;;;;8.93;100.00;98726.19;4949053;29;20288;-76
2023/05/15 04:20:51;;;;;;;9.67;8.67;;;;;;;8.91;100.00;98724.63;4965297;28;20191;-77
2023/05/15 04:23:22;;;;;;;8.90;8.07;;;;;;;8.88;100.00;98726.50;4968191;28;20200;-77
2023/05/15 04:25:53;;;;;;;7.20;6.10;;;;;;;9.08;100.00;98727.88;4963161;28;20227;-77
2023/05/15 04:28:22;;;;;;;6.23;5.63;;;;;;;9.07;100.00;98731.47;4967412;28;20196;-77
2023/05/15 04:30:51;;;;;;;6.40;5.80;;;;;;;9.12;100.00;98728.50;4967025;28;20196;-77
2023/05/15 04:33:19;;;;;;;6.57;5.97;;;;;;;9.28;100.00;98723.06;4967817;28;20282;-77
2023/05/15 04:35:48;;;;;;;7.97;6.17;;;;;;;9.15;100.00;98723.00;4967650;28;20207;-77
2023/05/15 04:38:16;;;;;;;7.47;5.70;;;;;;;9.33;100.00;98728.88;4972973;28;20192;-77
2023/05/15 04:40:45;;;;;;;8.03;6.23;;;;;;;9.31;100.00;98723.72;4972638;28;20215;-77
2023/05/15 04:43:15;;;;;;;6.23;5.63;;;;;;;9.29;100.00;98720.34;4975718;28;20195;-77
2023/05/15 04:45:44;;;;;;;5.73;5.23;;;;;;;9.36;100.00;98728.69;4967417;28;20211;-76
2023/05/15 04:48:12;;;;;;;5.73;5.23;;;;;;;9.40;100.00;98723.09;4966063;28;20207;-77
2023/05/15 04:50:40;;;;;;;6.30;5.23;;;;;;;9.28;100.00;98718.63;4967385;28;20254;-77
2023/05/15 04:53:08;;;;;;;6.10;5.03;;;;;;;9.29;100.00;98730.06;4964683;28;20246;-77
2023/05/15 04:55:38;;;;;;;6.13;5.53;;;;;;;9.28;100.00;98725.72;4971302;28;20222;-76
2023/05/15 04:58:09;;;;;;;5.83;5.23;;;;;;;9.41;100.00;98724.78;4965515;28;20192;-77
2023/05/15 05:00:39;;;;;;;10.40;5.87;;;;;;;9.52;100.00;98728.53;4964895;28;20250;-77
2023/05/15 05:03:08;;;;;;;6.40;5.27;;;;;;;9.63;100.00;98729.50;4967994;28;20192;-76
2023/05/15 05:05:36;;;;;;;5.80;5.20;;;;;;;9.63;100.00;98724.19;4968895;28;20231;-76
2023/05/15 05:08:05;;;;;;;6.20;5.60;;;;;;;9.56;100.00;98725.59;4975052;28;20200;-76
2023/05/15 05:10:33;;;;;;;5.43;4.93;;;;;;;9.56;100.00;98717.66;4962862;28;20247;-76
2023/05/15 05:13:01;;;;;;;5.43;4.93;;;;;;;9.73;100.00;98729.72;4970267;28;20270;-76
2023/05/15 05:15:32;;;;;;;5.07;4.63;;;;;;;9.81;100.00;98730.06;4978482;28;20212;-77
2023/05/15 05:18:02;;;;;;;5.87;5.37;;;;;;;9.84;100.00;98737.78;4982878;28;20244;-76
2023/05/15 05:20:31;;;;;;;8.50;4.97;;;;;;;9.78;100.00;98740.84;4979324;28;20283;-77
2023/05/15 05:22:59;;;;;;;10.17;5.73;;;;;;;9.93;100.00;98738.94;4982736;28;20199;-76
2023/05/15 05:25:27;;;;;;;6.40;5.80;;;;;;;9.99;100.00;98747.31;4982907;28;20203;-76
2023/05/15 05:27:55;;;;;;;7.83;5.77;;;;;;;10.17;100.00;98739.94;4906038;29;20242;-76
2023/05/15 05:30:24;;;;;;;9.73;5.83;;;;;;;10.23;100.00;98744.84;4906927;29;20246;-76
2023/05/15 05:32:52;;;;;;;6.07;5.47;;;;;;;10.33;100.00;98745.06;4893023;29;20354;-77
2023/05/15 05:35:23;;;;;;;5.57;5.07;;;;;;;10.50;100.00;98743.84;4898975;29;20230;-76
2023/05/15 05:37:52;;;;;;;7.80;5.23;;;;;;;10.60;100.00;98739.59;4890223;29;20226;-77
2023/05/15 05:40:21;;;;;;;5.50;5.00;;;;;;;10.68;100.00;98742.53;4888417;29;20233;-76
2023/05/15 05:42:53;;;;;;;5.83;5.27;;;;;;;10.69;100.00;98746.03;4893317;29;20201;-77
2023/05/15 05:45:21;;;;;;;5.93;4.97;;;;;;;10.75;100.00;98743.81;4901076;28;20275;-77
2023/05/15 05:47:50;;;;;;;5.83;5.10;;;;;;;10.90;100.00;98744.50;4973532;28;20235;-77
2023/05/15 05:50:19;;;;;;;5.50;4.87;;;;;;;10.97;100.00;98751.06;4969099;28;20203;-77
2023/05/15 05:52:49;;;;;;;8.70;5.30;;;;;;;11.18;100.00;98756.59;4963869;28;20718;-77
2023/05/15 05:55:17;;;;;;;6.03;5.43;;;;;;;11.29;100.00;98747.88;4970610;28;20258;-77
2023/05/15 05:57:45;;;;;;;5.87;5.17;;;;;;;11.41;100.00;98747.81;4929594;29;20209;-77
2023/05/15 06:00:15;;;;;;;6.57;5.90;;;;;;;11.60;100.00;98739.34;4928744;29;20193;-77
2023/05/15 06:02:43;;;;;;;7.80;5.70;;;;;;;11.74;100.00;98743.59;4926531;29;20248;-77
2023/05/15 06:05:11;;;;;;;7.00;5.70;;;;;;;11.72;100.00;98746.38;4933447;29;20228;-77
2023/05/15 06:07:40;;;;;;;8.20;5.70;;;;;;;11.87;100.00;98743.53;4924639;29;20261;-77
2023/05/15 06:10:11;;;;;;;7.53;5.57;;;;;;;11.91;100.00;98745.03;4927439;29;20197;-77
2023/05/15 06:12:40;;;;;;;7.73;5.30;;;;;;;11.90;100.00;98744.16;4927103;29;20208;-77
2023/05/15 06:15:08;;;;;;;7.77;5.73;;;;;;;12.09;100.00;98742.78;4933401;29;20220;-77
2023/05/15 06:17:40;;;;;;;6.57;5.40;;;;;;;12.06;100.00;98746.47;4894371;29;20210;-77
2023/05/15 06:20:10;;;;;;;10.40;5.20;;;;;;;12.29;100.00;98745.56;4886574;29;20254;-77
2023/05/15 06:22:39;;;;;;;6.50;5.83;;;;;;;12.02;100.00;98737.06;4917502;29;20288;-77
2023/05/15 06:25:13;;;;;;;6.33;5.73;;;;;;;12.14;100.00;98743.25;4929345;29;20201;-77
2023/05/15 06:27:41;;;;;;;9.23;5.70;;;;;;;11.79;100.00;98740.63;4926958;29;20208;-77
2023/05/15 06:30:11;;;;;;;6.30;5.70;;;;;;;11.80;100.00;98732.56;4928383;29;20196;-77
2023/05/15 06:32:42;;;;;;;6.87;5.50;;;;;;;12.02;100.00;98734.41;4929299;29;20205;-77
2023/05/15 06:35:11;;;;;;;6.40;5.83;;;;;;;12.10;100.00;98734.69;4930375;29;20696;-77
2023/05/15 06:37:39;;;;;;;6.10;5.60;;;;;;;12.09;100.00;98742.78;4926662;29;20205;-77
2023/05/15 06:40:11;;;;;;;7.80;6.03;;;;;;;12.04;100.00;98737.81;4928396;29;20208;-77
2023/05/15 06:42:40;;;;;;;10.30;6.63;;;;;;;11.85;100.00;98740.16;4889485;29;20198;-77
2023/05/15 06:45:09;;;;;;;7.07;6.40;;;;;;;11.86;100.00;98741.84;4892734;29;20203;-77
2023/05/15 06:47:38;;;;;;;7.83;7.00;;;;;;;11.73;100.00;98739.25;4888077;29;20209;-76
2023/05/15 06:50:07;;;;;;;7.37;6.30;;;;;;;11.79;100.00;98740.63;4890343;29;20325;-77
2023/05/15 06:52:35;;;;;;;8.27;6.80;;;;;;;11.83;100.00;98742.94;4888745;29;20207;-77
2023/05/15 06:55:07;;;;;;;9.80;7.33;;;;;;;11.91;100.00;98747.66;4891864;29;20223;-77
2023/05/15 06:57:37;;;;;;;9.57;6.97;;;;;;;12.29;100.00;98744.72;4894038;29;20227;-76
2023/05/15 07:00:08;;;;;;;8.00;6.50;;;;;;;12.57;100.00;98746.06;4894802;29;20210;-77
2023/05/15 07:02:37;;;;;;;8.53;7.20;;;;;;;12.62;100.00;98743.88;4888639;29;20198;-77
2023/05/15 07:05:07;;;;;;;7.17;6.47;;;;;;;13.05;100.00;98741.31;4859148;29;20256;-77
2023/05/15 07:07:36;;;;;;;6.80;6.10;;;;;;;13.17;100.00;98734.16;4907308;29;20240;-77
2023/05/15 07:10:07;;;;;;;6.70;6.10;;;;;;;13.22;100.00;98728.47;4928637;29;20201;-77
2023/05/15 07:12:35;;;;;;;7.03;6.37;;;;;;;13.16;100.00;98716.50;4931970;29;20209;-77
2023/05/15 07:15:09;;;;;;;6.90;6.30;;;;;;;12.97;100.00;98711.00;4934428;29;20225;-77
2023/05/15 07:17:38;;;;;;;6.50;5.90;;;;;;;13.44;100.00;98717.78;4929117;29;20281;-77
2023/05/15 07:20:07;;;;;;;6.40;5.80;;;;;;;13.14;100.00;98708.66;4933990;29;20214;-76
2023/05/15 07:22:36;;;;;;;6.50;5.90;;;;;;;13.43;100.00;98700.13;4939642;28;20251;-77
2023/05/15 07:25:15;;;;;;;6.23;5.63;;;;;;;13.85;100.00;98695.66;4971727;28;20196;-77
2023/05/15 07:27:44;;;;;;;8.53;5.60;;;;;;;14.02;100.00;98689.75;4967546;28;20286;-77
2023/05/15 07:30:15;;;;;;;6.30;5.80;;;;;;;13.97;100.00;98694.63;4967341;28;20200;-77
2023/05/15 07:32:43;;;;;;;10.60;6.33;;;;;;;14.14;100.00;98690.50;4971363;28;20203;-77
2023/05/15 07:35:12;;;;;;;6.70;6.03;;;;;;;14.25;100.00;98681.59;4972963;28;20224;-77
2023/05/15 07:37:41;;;;;;;8.33;5.77;;;;;;;14.28;100.00;98687.53;4970766;28;20206;-76
2023/05/15 07:40:11;;;;;;;6.57;5.90;;;;;;;14.67;100.00;98687.69;4911866;29;20333;-77
2023/05/15 07:42:39;;;;;;;6.60;6.00;;;;;;;14.67;100.00;98689.50;4876838;29;20202;-77
2023/05/15 07:45:09;;;;;;;7.20;5.27;;;;;;;15.10;100.00;98682.03;4914710;29;20354;-77
2023/05/15 07:47:39;;;;;;;6.80;5.70;;;;;;;15.00;100.00;98677.66;4914153;29;20197;-77
2023/05/15 07:50:08;;;;;;;6.43;5.80;;;;;;;14.95;100.00;98674.56;4906488;29;20206;-77
2023/05/15 07:52:36;;;;;;;8.50;5.50;;;;;;;15.08;100.00;98665.31;4908368;29;20208;-77
2023/05/15 07:55:05;;;;;;;7.13;5.50;;;;;;;15.35;100.00;98661.97;4911684;29;20277;-77
2023/05/15 07:57:34;;;;;;;5.17;4.67;;;;;;;15.55;100.00;98659.31;4903578;29;20208;-77
2023/05/15 08:00:09;;;;;;;5.47;4.90;;;;;;;15.69;100.00;98662.38;4947826;29;20205;-78
2023/05/15 08:02:38;;;;;;;5.13;4.50;;;;;;;15.55;100.00;98656.63;4953219;29;20199;-77
2023/05/15 08:05:09;;;;;;;7.53;5.20;;;;;;;15.87;100.00;98651.81;4947854;28;20256;-78
2023/05/15 08:07:37;;;;;;;5.53;5.03;;;;;;;15.82;100.00;98655.91;4948651;29;20204;-76
2023/05/15 08:10:07;;;;;;;6.83;4.80;;;;;;;15.72;100.00;98643.41;4875357;29;20210;-78
2023/05/15 08:12:35;;;;;;;5.10;4.60;;;;;;;16.21;100.00;98652.16;4872157;29;20215;-78
2023/05/15 08:15:04;;;;;;;6.70;4.80;;;;;;;16.41;100.00;98649.41;4847659;29;20248;-78
2023/05/15 08:17:32;;;;;;;6.80;5.20;;;;;;;16.65;100.00;98638.16;4869035;29;20382;-77
2023/05/15 08:20:03;;;;;;;5.57;4.80;;;;;;;16.82;100.00;98645.41;4872637;29;20207;-77
2023/05/15 08:22:32;;;;;;;8.00;4.73;;;;;;;16.80;100.00;98644.72;4880821;29;20726;-77
2023/05/15 08:25:02;;;;;;;8.43;4.83;;;;;;;17.04;100.00;98657.50;4876324;29;20211;-78
2023/05/15 08:27:31;;;;;;;5.20;4.40;;;;;;;16.85;100.00;98643.25;4891474;28;20233;-77
2023/05/15 08:30:01;;;;;;;5.20;4.47;;;;;;;17.02;100.00;98632.75;4946592;28;20247;-77
2023/05/15 08:32:29;;;;;;;4.90;4.33;;;;;;;16.75;100.00;98647.00;4943250;28;20196;-77
2023/05/15 08:34:58;;;;;;;5.10;4.30;;;;;;;16.95;100.00;98634.34;4947917;28;20244;-77
2023/05/15 08:37:28;;;;;;;6.40;4.30;;;;;;;17.26;100.00;98632.97;4948019;28;20297;-77
2023/05/15 08:39:59;;;;;;;5.53;4.50;;;;;;;16.90;100.00;98637.47;4946432;28;20208;-77
2023/05/15 08:42:33;;;;;;;6.40;4.50;;;;;;;17.33;100.00;98642.06;4951934;28;20261;-77
2023/05/15 08:45:02;;;;;;;7.63;4.97;;;;;;;17.30;100.00;98638.88;4986492;28;20206;-78
2023/05/15 08:47:34;;;;;;;7.33;4.47;;;;;;;17.53;100.00;98639.22;4962289;28;20227;-77
2023/05/15 08:50:11;;;;;;;6.77;4.00;;;;;;;17.52;100.00;98638.38;4951035;29;20251;-77
2023/05/15 08:52:42;;;;;;;5.07;3.73;;;;;;;17.76;100.00;98629.75;4944939;29;20240;-77
2023/05/15 08:55:11;;;;;;;5.27;4.30;;;;;;;17.68;100.00;98627.81;4949590;28;20212;-77
2023/05/15 08:57:40;;;;;;;4.00;3.40;;;;;;;18.10;100.00;98621.72;4929061;29;20304;-78
2023/05/15 09:00:13;;;;;;;4.80;3.47;;;;;;;17.85;100.00;98617.22;4928475;29;20201;-77
2023/05/15 09:02:42;;;;;;;5.03;3.80;;;;;;;18.21;100.00;98613.41;4930831;29;20207;-78
2023/05/15 09:05:12;;;;;;;6.87;4.10;;;;;;;18.10;100.00;98610.19;4933554;29;20208;-77
2023/05/15 09:07:47;;;;;;;4.07;3.60;;;;;;;18.14;100.00;98608.84;4954390;28;20204;-78
2023/05/15 09:10:17;;;;;;;6.30;3.70;;;;;;;18.50;100.00;98605.00;4964174;28;20215;-77
2023/05/15 09:12:45;;;;;;;4.50;4.10;;;;;;;18.28;100.00;98606.41;4967406;28;20222;-77
2023/05/15 09:15:16;;;;;;;5.97;3.97;;;;;;;18.72;100.00;98611.66;4971863;28;20270;-77
2023/05/15 09:17:45;;;;;;;4.23;3.70;;;;;;;18.81;100.00;98599.06;4963282;28;20202;-77
2023/05/15 09:20:30;;;;;;;5.17;3.47;;;;;;;19.02;100.00;98606.69;4964630;28;20651;-78
2023/05/15 09:23:02;;;;;;;3.70;3.40;;;;;;;19.34;100.00;98608.56;4966339;28;20195;-77
2023/05/15 09:25:37;;;;;;;4.33;3.60;;;;;;;19.47;100.00;98592.78;4970716;28;20199;-78
2023/05/15 09:28:06;;;;;;;3.87;3.53;;;;;;;18.57;100.00;98594.47;4971575;28;20459;-78
2023/05/15 09:30:38;;;;;;;4.60;3.57;;;;;;;19.29;100.00;98589.41;4970486;28;20239;-78
2023/05/15 09:33:07;;;;;;;3.90;3.50;;;;;;;19.71;100.00;98589.28;4928484;29;20245;-78
2023/05/15 09:35:41;;;;;;;6.70;3.70;;;;;;;20.09;100.00;98593.06;4910020;29;20222;-78
2023/05/15 09:38:14;;;;;;;4.80;3.50;;;;;;;20.29;100.00;98593.50;4908873;29;20213;-78
2023/05/15 09:40:42;;;;;;;6.63;3.90;;;;;;;20.42;100.00;98587.53;4892488;29;20210;-78
2023/05/15 09:43:11;;;;;;;6.60;3.90;;;;;;;20.20;100.00;98595.38;4888347;29;20194;-78
2023/05/15 09:45:40;;;;;;;6.93;3.83;;;;;;;20.44;94.44;98597.13;4889312;29;20206;-78
2023/05/15 09:48:10;;;;;;;5.07;3.50;;;;;;;20.57;73.88;98593.91;4894695;29;20728;-78
2023/05/15 09:50:41;;;;;;;4.23;3.83;;;;;;;20.91;88.78;98582.75;4896472;29;20260;-77
2023/05/15 09:53:13;;;;;;;5.67;3.67;;;;;;;21.16;78.59;98586.13;4907112;29;20213;-78
2023/05/15 09:55:49;;;;;;;6.38;3.95;;;;;;;21.59;79.69;98586.47;4932922;29;20696;-78
2023/05/15 09:58:18;;;;;;;5.43;4.43;;;;;;;21.12;100.00;98585.63;4943818;28;20200;-78
2023/05/15 10:00:48;;;;;;;11.50;5.35;;;;;;;20.92;100.00;98576.38;4967790;28;20196;-78
2023/05/15 10:03:18;;;;;;;6.27;4.80;;;;;;;20.60;100.00;98582.78;4969628;28;20707;-78
2023/05/15 10:05:47;;;;;;;7.53;5.33;;;;;;;20.11;100.00;98587.50;4941596;29;20204;-77
2023/05/15 10:08:27;;;;;;;9.87;5.70;;;;;;;19.27;100.00;98578.00;4951008;29;20196;-77
2023/05/15 10:10:59;;;;;;;6.10;5.50;;;;;;;18.97;100.00;98584.84;4951994;29;20208;-78
2023/05/15 10:13:31;;;;;;;7.10;5.40;;;;;;;18.60;100.00;98591.44;4949500;29;20200;-77
2023/05/15 10:16:03;;;;;;;7.53;5.60;;;;;;;18.47;100.00;98599.97;4949982;29;20294;-78
2023/05/15 10:18:36;;;;;;;9.90;6.30;;;;;;;18.22;100.00;98607.06;4951679;29;20223;-77
2023/05/15 10:21:08;;;;;;;6.93;4.50;;;;;;;17.91;100.00;98601.34;4958709;28;20628;-77
2023/05/15 10:23:42;;;;;;;5.07;4.57;;;;;;;17.75;100.00;98603.94;4966898;28;20202;-77
2023/05/15 10:26:15;;;;;;;3.67;3.37;;;;;;;17.24;100.00;98604.69;4970220;28;20212;-77
2023/05/15 10:28:48;;;;;;;4.10;3.40;;;;;;;17.20;100.00;98603.31;4970087;28;20202;-77
2023/05/15 10:31:21;;;;;;;3.53;2.50;;;;;;;16.95;100.00;98604.91;4969956;28;20207;-77
2023/05/15 10:33:51;;;;;;;5.00;2.80;;;;;;;16.62;100.00;98617.91;4968195;28;20531;-78
2023/05/15 10:36:20;;;;;;;4.20;2.70;;;;;;;16.58;100.00;98609.31;4966627;28;20224;-77
2023/05/15 10:38:51;;;;;;;4.23;3.00;;;;;;;16.41;100.00;98610.16;4965415;28;20227;-77
2023/05/15 10:41:21;;;;;;;3.67;2.83;;;;;;;16.48;100.00;98597.00;4956277;28;20193;-77
2023/05/15 10:43:49;;;;;;;2.50;2.30;;;;;;;16.33;100.00;98601.19;4967429;28;20203;-77
2023/05/15 10:46:19;;;;;;;3.07;2.37;;;;;;;16.30;100.00;98592.44;4953449;29;20204;-77
2023/05/15 10:48:48;;;;;;;2.37;2.10;;;;;;;16.16;100.00;98592.13;4945097;29;20227;-77
2023/05/15 10:51:17;;;;;;;3.97;2.40;;;;;;;16.18;100.00;98598.16;4945068;29;20204;-78
2023/05/15 10:53:46;;;;;;;3.00;2.53;;;;;;;16.19;100.00;98598.00;4942595;29;20308;-77
2023/05/15 10:56:17;;;;;;;2.57;2.37;;;;;;;16.39;100.00;98593.41;4910220;29;20225;-78
2023/05/15 10:58:48;;;;;;;4.10;2.80;;;;;;;16.51;100.00;98592.22;4914312;29;20213;-78
2023/05/15 11:01:37;;;;;;;3.27;2.80;;;;;;;16.47;100.00;98589.97;4893881;29;20231;-78
2023/05/15 11:04:09;;;;;;;4.70;2.83;;;;;;;16.50;100.00;98587.88;4912287;29;20305;-78
2023/05/15 11:06:40;;;;;;;3.70;2.60;;;;;;;16.57;100.00;98580.06;4907092;29;20269;-77
2023/05/15 11:09:39;;;;;;;3.83;2.70;;;;;;;16.59;100.00;98575.41;4912748;29;20206;-78
2023/05/15 11:12:12;;;;;;;2.53;2.33;;;;;;;16.57;100.00;98580.91;4945708;29;20266;-78
2023/05/15 11:14:43;;;;;;;2.90;2.60;;;;;;;16.55;100.00;98574.03;4961559;28;20231;-78
2023/05/15 11:17:16;;;;;;;2.83;2.63;;;;;;;16.73;100.00;98577.63;4970935;28;20219;-78
2023/05/15 11:20:03;;;;;;;4.47;2.70;;;;;;;16.90;100.00;98575.13;4967792;28;20295;-77
2023/05/15 11:22:36;;;;;;;2.73;2.47;;;;;;;17.03;100.00;98572.88;4972283;28;20709;-78
2023/05/15 11:25:07;;;;;;;2.63;2.40;;;;;;;17.10;100.00;98568.59;4970925;28;20211;-78
2023/05/15 11:27:43;;;;;;;3.23;2.60;;;;;;;17.37;100.00;98573.00;4972691;28;20208;-78
2023/05/15 11:30:16;;;;;;;3.50;2.90;;;;;;;17.61;100.00;98575.84;4954436;28;20281;-78
2023/05/15 11:32:54;;;;;;;3.33;2.20;;;;;;;17.57;100.00;98569.16;4972942;28;20287;-78
2023/05/15 11:35:27;;;;;;;4.10;2.67;;;;;;;17.61;100.00;98567.81;4970795;28;20204;-78
2023/05/15 11:38:05;;;;;;;3.73;2.67;;;;;;;17.69;99.93;98572.41;4972233;28;20320;-78
2023/05/15 11:40:45;;;;;;;4.33;3.13;;;;;;;18.01;100.00;98574.44;4970362;28;20666;-77
2023/05/15 11:43:24;;;;;;;3.10;2.80;;;;;;;18.27;100.00;98569.88;4974710;28;20219;-77